createdAt,value
2018-07-07T17:58:38.688Z,44.98
2018-07-07T17:59:26.637Z,45.27
2018-07-07T18:00:26.559Z,45.07
2018-07-07T18:01:26.525Z,45.07
2018-07-07T18:02:26.509Z,44.59
2018-07-07T18:03:26.519Z,45.27
2018-07-07T18:04:26.499Z,45.15
2018-07-07T18:05:26.481Z,46.99
2018-07-07T18:06:26.471Z,46.99
2018-07-07T18:07:26.487Z,46.31
2018-07-07T18:08:26.463Z,46.51
2018-07-07T18:09:26.448Z,46.31
2018-07-07T18:10:26.431Z,47.09
2018-07-07T18:11:26.438Z,47.26
2018-07-07T18:12:26.416Z,47.64
2018-07-07T18:13:26.392Z,47.94
2018-07-07T18:14:26.384Z,47.91
2018-07-07T18:15:26.466Z,48.01
2018-07-07T18:16:26.367Z,47.91
2018-07-07T18:17:28.121Z,48.13
2018-07-07T18:18:26.352Z,48.22
2018-07-07T18:19:26.346Z,48.52
2018-07-07T18:20:26.332Z,48.88
2018-07-07T18:21:26.311Z,47.64
2018-07-07T18:22:26.306Z,48.49
2018-07-07T18:23:26.292Z,48.69
2018-07-07T18:24:26.333Z,47.81
2018-07-07T18:25:29.123Z,48.20
2018-07-07T18:26:26.303Z,48.20
2018-07-07T18:27:26.252Z,48.37
2018-07-07T18:28:26.308Z,48.86
2018-07-07T18:29:26.220Z,48.76
2018-07-07T18:30:26.205Z,48.76
2018-07-07T18:31:29.117Z,48.76
2018-07-07T18:32:26.193Z,49.51
2018-07-07T18:33:26.216Z,49.22
2018-07-07T18:34:26.162Z,49.12
2018-07-07T18:35:26.152Z,49.22
2018-07-07T18:36:26.148Z,49.22
2018-07-07T18:37:26.213Z,49.12
2018-07-07T18:38:26.122Z,49.32
2018-07-07T18:39:26.107Z,49.32
2018-07-07T18:40:26.109Z,49.51
2018-07-07T18:41:26.118Z,50.09
2018-07-07T18:42:26.068Z,49.60
2018-07-07T18:43:26.071Z,49.51
2018-07-07T18:44:26.060Z,49.70
2018-07-07T18:45:26.028Z,51.15
2018-07-07T18:58:48.761Z,52.65
2018-07-07T18:59:48.744Z,53.03
2018-07-07T19:01:43.203Z,52.62
2018-07-07T19:02:43.207Z,53.11
2018-07-07T19:03:43.717Z,52.26
2018-07-07T19:04:43.484Z,52.81
2018-07-07T19:05:43.160Z,52.72
2018-07-07T19:06:43.284Z,53.20
2018-07-07T19:07:43.211Z,53.78
2018-07-07T19:08:43.107Z,53.01
2018-07-07T19:09:43.109Z,52.91
2018-07-07T19:10:43.136Z,53.59
2018-07-07T19:11:46.635Z,53.49
2018-07-07T19:12:43.067Z,53.69
2018-07-07T19:13:43.065Z,53.39
2018-07-07T19:14:43.220Z,54.07
2018-07-07T19:15:43.026Z,53.78
2018-07-07T19:16:45.154Z,54.36
2018-07-07T19:19:51.677Z,54.05
2018-07-07T19:20:16.327Z,54.05
2018-07-07T19:22:10.862Z,55.10
2018-07-07T19:23:10.831Z,54.53
2018-07-07T19:25:10.783Z,54.62
2018-07-07T19:26:11.268Z,54.43
2018-07-07T19:27:11.225Z,55.10
2018-07-07T19:28:11.188Z,54.82
2018-07-07T19:29:10.849Z,55.20
2018-07-07T19:30:10.906Z,55.40
2018-07-07T19:31:10.729Z,55.68
2018-07-07T19:35:38.389Z,56.33
2018-07-07T19:36:38.360Z,55.66
2018-07-07T19:37:38.406Z,56.33
2018-07-07T19:38:38.356Z,55.76
2018-07-07T19:39:38.313Z,56.52
2018-07-07T19:40:38.333Z,56.33
2018-07-07T19:41:38.289Z,56.62
2018-07-07T19:42:38.348Z,56.04
2018-07-07T19:43:38.260Z,56.62
2018-07-07T19:44:38.243Z,57.01
2018-07-07T19:45:38.249Z,57.01
2018-07-07T19:46:38.250Z,56.52
2018-07-07T19:47:38.204Z,56.91
2018-07-07T19:48:38.183Z,56.81
2018-07-07T19:49:38.183Z,57.01
2018-07-07T19:50:38.159Z,56.24
2018-07-07T19:51:38.152Z,56.14
2018-07-07T19:52:38.159Z,57.01
2018-07-07T19:53:38.200Z,57.29
2018-07-07T19:54:38.124Z,56.91
2018-07-07T19:55:38.111Z,56.14
2018-07-07T19:56:38.104Z,56.81
2018-07-07T19:57:38.083Z,58.26
2018-07-07T19:58:38.069Z,57.94
2018-07-07T19:59:38.116Z,57.17
2018-07-07T20:00:38.087Z,57.94
2018-07-07T20:01:38.055Z,58.04
2018-07-07T20:02:38.027Z,57.75
2018-07-07T20:03:38.068Z,57.94
2018-07-07T20:04:38.121Z,58.72
2018-07-07T20:05:37.987Z,58.33
2018-07-07T20:06:38.151Z,58.33
2018-07-07T20:07:38.028Z,58.52
2018-07-07T20:08:37.914Z,58.81
2018-07-07T20:09:37.933Z,58.72
2018-07-07T20:10:37.917Z,58.69
2018-07-07T20:11:37.921Z,59.84
2018-07-07T20:12:37.992Z,58.59
2018-07-07T20:13:37.902Z,58.59
2018-07-07T20:14:37.840Z,58.49
2018-07-07T20:15:37.919Z,59.55
2018-07-07T20:16:37.856Z,59.27
2018-07-07T20:17:37.826Z,59.65
2018-07-07T20:18:37.777Z,59.55
2018-07-07T20:19:37.861Z,59.55
2018-07-07T20:20:37.812Z,59.65
2018-07-07T20:21:37.764Z,59.65
2018-07-07T20:22:37.753Z,60.32
2018-07-07T20:23:37.810Z,60.42
2018-07-07T20:24:37.755Z,60.39
2018-07-07T20:25:37.661Z,60.30
2018-07-07T20:26:37.848Z,61.19
2018-07-07T20:27:37.696Z,61.29
2018-07-07T20:28:37.639Z,61.07
2018-07-07T20:29:37.611Z,61.45
2018-07-07T20:30:37.606Z,61.45
2018-07-07T20:31:37.606Z,61.93
2018-07-07T20:32:37.565Z,62.12
2018-07-07T20:33:37.551Z,62.12
2018-07-07T20:34:37.539Z,61.35
2018-07-07T20:35:37.517Z,61.65
2018-07-07T20:36:37.506Z,62.12
2018-07-07T20:37:37.494Z,61.16
2018-07-07T20:38:37.495Z,62.22
2018-07-07T20:39:37.462Z,61.25
2018-07-07T20:40:37.446Z,61.35
2018-07-07T20:41:37.433Z,62.03
2018-07-07T20:42:37.424Z,61.93
2018-07-07T20:43:37.408Z,62.12
2018-07-07T20:44:37.391Z,62.38
2018-07-07T20:45:37.371Z,62.60
2018-07-07T20:46:37.356Z,62.48
2018-07-07T20:47:37.338Z,62.19
2018-07-07T20:48:37.331Z,62.48
2018-07-07T20:49:37.311Z,62.80
2018-07-07T20:50:37.306Z,62.67
2018-07-07T20:51:37.318Z,62.38
2018-07-07T20:52:37.263Z,62.48
2018-07-07T20:53:37.297Z,62.48
2018-07-07T20:54:37.255Z,63.44
2018-07-07T20:55:37.245Z,62.48
2018-07-07T20:56:37.211Z,62.77
2018-07-07T20:57:37.191Z,63.64
2018-07-07T20:58:37.178Z,63.34
2018-07-07T20:59:37.185Z,63.54
2018-07-07T21:00:37.168Z,63.44
2018-07-07T21:01:37.154Z,63.34
2018-07-07T21:02:37.138Z,63.44
2018-07-07T21:03:37.100Z,64.02
2018-07-07T21:04:37.100Z,63.64
2018-07-07T21:05:37.133Z,62.87
2018-07-07T21:06:37.069Z,64.12
2018-07-07T21:07:37.049Z,63.64
2018-07-07T21:08:37.031Z,64.12
2018-07-07T21:09:37.021Z,63.64
2018-07-07T21:10:36.998Z,63.54
2018-07-07T21:11:36.982Z,64.31
2018-07-07T21:12:36.991Z,63.79
2018-07-07T21:13:36.952Z,64.18
2018-07-07T21:14:36.942Z,64.56
2018-07-07T21:15:36.929Z,65.53
2018-07-07T21:16:36.904Z,65.43
2018-07-07T21:17:36.894Z,65.33
2018-07-07T21:18:36.880Z,64.66
2018-07-07T21:19:36.910Z,65.43
2018-07-07T21:20:36.861Z,65.05
2018-07-07T21:21:36.825Z,65.78
2018-07-07T21:22:36.834Z,65.59
2018-07-07T21:23:36.929Z,65.40
2018-07-07T21:24:36.807Z,65.69
2018-07-07T21:25:36.764Z,66.07
2018-07-07T21:26:36.752Z,66.27
2018-07-07T21:27:36.753Z,65.97
2018-07-07T21:28:36.741Z,65.88
2018-07-07T21:29:36.727Z,65.50
2018-07-07T21:30:36.728Z,65.69
2018-07-07T21:31:36.812Z,65.97
2018-07-07T21:32:36.691Z,66.55
2018-07-07T21:33:36.716Z,65.97
2018-07-07T21:34:36.721Z,65.97
2018-07-07T21:35:36.675Z,66.07
2018-07-07T21:36:36.595Z,65.78
2018-07-07T21:37:36.587Z,65.69
2018-07-07T21:38:36.600Z,66.17
2018-07-07T21:39:36.564Z,65.97
2018-07-07T21:40:36.537Z,66.36
2018-07-07T21:41:36.593Z,65.88
2018-07-07T21:42:36.519Z,65.78
2018-07-07T21:43:36.490Z,65.94
2018-07-07T21:44:36.503Z,66.17
2018-07-07T21:45:36.474Z,66.81
2018-07-07T21:46:36.475Z,66.61
2018-07-07T21:47:36.430Z,66.61
2018-07-07T21:48:36.424Z,67.10
2018-07-07T21:49:36.392Z,66.42
2018-07-07T21:50:36.393Z,66.33
2018-07-07T21:51:36.362Z,66.81
2018-07-07T21:52:36.375Z,67.38
2018-07-07T21:53:36.381Z,67.19
2018-07-07T21:54:36.359Z,67.10
2018-07-07T21:55:36.303Z,67.68
2018-07-07T21:56:36.298Z,67.48
2018-07-07T21:57:36.487Z,67.68
2018-07-07T21:58:36.294Z,67.68
2018-07-07T21:59:36.264Z,67.96
2018-07-07T22:00:36.243Z,68.35
2018-07-07T22:01:36.215Z,67.77
2018-07-07T22:02:36.238Z,67.86
2018-07-07T22:03:36.194Z,68.35
2018-07-07T22:04:36.183Z,68.83
2018-07-07T22:05:36.327Z,68.83
2018-07-07T22:06:36.139Z,68.44
2018-07-07T22:07:36.135Z,68.60
2018-07-07T22:08:36.087Z,68.60
2018-07-07T22:09:36.132Z,68.70
2018-07-07T22:10:36.065Z,69.27
2018-07-07T22:11:36.072Z,69.46
2018-07-07T22:12:36.042Z,68.89
2018-07-07T22:13:36.024Z,68.51
2018-07-07T22:14:36.023Z,68.98
2018-07-07T22:15:36.002Z,69.66
2018-07-07T22:16:35.960Z,69.56
2018-07-07T22:17:35.944Z,69.27
2018-07-07T22:18:35.933Z,69.37
2018-07-07T22:19:35.967Z,68.51
2018-07-07T22:20:35.902Z,68.31
2018-07-07T22:21:36.181Z,69.46
2018-07-07T22:22:35.908Z,69.18
2018-07-07T22:23:35.869Z,68.70
2018-07-07T22:24:35.841Z,68.79
2018-07-07T22:25:35.831Z,68.95
2018-07-07T22:26:35.819Z,67.83
2018-07-07T22:27:35.789Z,67.74
2018-07-07T22:28:35.802Z,68.31
2018-07-07T22:29:35.778Z,68.21
2018-07-07T22:30:35.731Z,68.02
2018-07-07T22:31:35.724Z,68.28
2018-07-07T22:32:35.730Z,67.80
2018-07-07T22:33:35.729Z,67.64
2018-07-07T22:34:35.670Z,67.61
2018-07-07T22:35:35.658Z,68.28
2018-07-07T22:36:35.647Z,68.18
2018-07-07T22:37:35.651Z,67.80
2018-07-07T22:38:35.614Z,68.28
2018-07-07T22:39:35.602Z,67.99
2018-07-07T22:40:35.598Z,68.57
2018-07-07T22:41:35.574Z,68.47
2018-07-07T22:42:35.562Z,68.47
2018-07-07T22:43:35.552Z,67.90
2018-07-07T22:44:35.516Z,68.47
2018-07-07T22:45:35.497Z,67.80
2018-07-07T22:46:35.474Z,67.99
2018-07-07T22:47:35.460Z,68.76
2018-07-07T22:48:35.470Z,68.47
2018-07-07T22:49:35.420Z,69.43
2018-07-07T22:50:35.415Z,69.24
2018-07-07T22:51:35.417Z,69.62
2018-07-07T22:52:35.383Z,68.76
2018-07-07T22:53:35.356Z,68.47
2018-07-07T22:54:35.342Z,69.53
2018-07-07T22:55:35.333Z,69.24
2018-07-07T22:56:35.312Z,69.34
2018-07-07T22:57:35.311Z,69.43
2018-07-07T22:58:35.301Z,69.40
2018-07-07T22:59:35.266Z,69.20
2018-07-07T23:00:35.240Z,69.59
2018-07-07T23:01:35.236Z,69.20
2018-07-07T23:02:35.231Z,69.59
2018-07-07T23:03:35.212Z,69.30
2018-07-07T23:04:35.191Z,69.49
2018-07-07T23:05:35.176Z,69.20
2018-07-07T23:06:35.143Z,69.59
2018-07-07T23:07:35.130Z,69.97
2018-07-07T23:08:35.120Z,69.78
2018-07-07T23:09:35.094Z,69.59
2018-07-07T23:10:35.104Z,69.68
2018-07-07T23:11:35.064Z,69.49
2018-07-07T23:12:35.037Z,70.45
2018-07-07T23:13:35.059Z,69.49
2018-07-07T23:14:35.019Z,70.36
2018-07-07T23:15:35.006Z,70.74
2018-07-07T23:16:34.973Z,70.64
2018-07-07T23:17:34.977Z,71.12
2018-07-07T23:18:34.977Z,70.64
2018-07-07T23:19:35.033Z,70.61
2018-07-07T23:20:34.928Z,70.13
2018-07-07T23:21:34.941Z,70.51
2018-07-07T23:22:35.034Z,70.64
2018-07-07T23:23:34.952Z,71.47
2018-07-07T23:24:34.857Z,71.57
2018-07-07T23:25:34.888Z,70.70
2018-07-07T23:26:34.806Z,70.99
2018-07-07T23:27:34.806Z,71.19
2018-07-07T23:28:34.809Z,70.90
2018-07-07T23:29:34.807Z,70.80
2018-07-07T23:30:34.742Z,71.47
2018-07-07T23:31:34.726Z,70.90
2018-07-07T23:32:34.747Z,70.90
2018-07-07T23:33:34.703Z,71.19
2018-07-07T23:34:34.679Z,70.80
2018-07-07T23:35:34.695Z,71.76
2018-07-07T23:36:34.714Z,71.57
2018-07-07T23:37:34.618Z,70.99
2018-07-07T23:38:34.609Z,70.99
2018-07-07T23:39:34.604Z,70.99
2018-07-07T23:40:34.587Z,71.19
2018-07-07T23:41:34.561Z,72.05
2018-07-07T23:42:34.569Z,71.76
2018-07-07T23:43:34.524Z,72.72
2018-07-07T23:44:34.499Z,72.53
2018-07-07T23:45:34.521Z,72.78
2018-07-07T23:46:34.465Z,72.63
2018-07-07T23:47:34.468Z,73.10
2018-07-07T23:48:34.448Z,73.55
2018-07-07T23:49:34.420Z,73.49
2018-07-07T23:50:34.402Z,73.16
2018-07-07T23:51:34.407Z,74.02
2018-07-07T23:52:34.373Z,73.65
2018-07-07T23:53:34.349Z,73.45
2018-07-07T23:54:34.338Z,73.26
2018-07-07T23:55:34.311Z,73.45
2018-07-07T23:56:34.296Z,73.35
2018-07-07T23:57:34.279Z,74.12
2018-07-07T23:58:34.260Z,74.22
2018-07-07T23:59:34.265Z,74.31
